Time;durP1;ratioP1;P1;durP2;ratioP2;P2;SDS_P1;SDS_P2;PMS_P1;PMS_P2;Temp;Humidity;BMP_temperature;BMP_pressure;BME280_temperature;BME280_humidity;BME280_pressure;Samples;Min_cycle;Max_cycle;Signal;HPM_P1;HPM_P2
2023/05/21 00:01:14;;;;;;;14.60;11.52;;;17.30;99.30;;;;;;5087592;28;20034;-63
2023/05/21 00:03:48;;;;;;;15.52;11.52;;;17.30;99.30;;;;;;5091098;28;21038;-63
2023/05/21 00:06:14;;;;;;;14.82;11.35;;;17.30;99.30;;;;;;5089159;28;20035;-64
2023/05/21 00:08:41;;;;;;;14.85;10.68;;;17.20;99.70;;;;;;5087835;28;20083;-64
2023/05/21 00:11:07;;;;;;;18.83;11.98;;;17.20;99.60;;;;;;5093147;28;20205;-63
2023/05/21 00:13:33;;;;;;;14.48;10.68;;;17.30;99.60;;;;;;5088946;28;20036;-63
2023/05/21 00:15:59;;;;;;;17.42;12.02;;;17.30;99.50;;;;;;5085777;28;20051;-63
2023/05/21 00:18:25;;;;;;;16.08;11.63;;;17.30;99.60;;;;;;5088684;28;20734;-64
2023/05/21 00:20:51;;;;;;;18.90;12.15;;;17.20;99.70;;;;;;5089608;28;20032;-64
2023/05/21 00:23:18;;;;;;;16.30;11.35;;;17.20;99.90;;;;;;5089009;28;20032;-64
2023/05/21 00:25:45;;;;;;;18.83;12.45;;;17.20;99.70;;;;;;5090166;28;20098;-61
2023/05/21 00:28:11;;;;;;;17.02;12.38;;;17.20;99.80;;;;;;5090541;28;20441;-63
2023/05/21 00:30:37;;;;;;;13.35;10.73;;;17.20;99.90;;;;;;5090505;28;20154;-64
2023/05/21 00:33:03;;;;;;;15.77;11.73;;;17.20;99.80;;;;;;5087237;28;20692;-63
2023/05/21 00:35:28;;;;;;;15.32;10.98;;;17.20;99.70;;;;;;5088222;28;20028;-63
2023/05/21 00:37:54;;;;;;;14.15;10.52;;;17.20;99.70;;;;;;5089040;28;20120;-63
2023/05/21 00:40:21;;;;;;;13.02;9.80;;;17.20;99.70;;;;;;5089033;28;20040;-63
2023/05/21 00:42:46;;;;;;;13.38;9.10;;;17.20;99.80;;;;;;5090931;28;20118;-64
2023/05/21 00:45:15;;;;;;;16.60;10.57;;;17.10;99.90;;;;;;5091549;28;20039;-61
2023/05/21 00:47:42;;;;;;;15.50;10.30;;;17.10;99.90;;;;;;5093673;28;20036;-63
2023/05/21 00:50:10;;;;;;;12.05;9.50;;;17.00;99.90;;;;;;5092789;28;20027;-64
2023/05/21 00:52:40;;;;;;;12.48;9.68;;;17.00;99.90;;;;;;5107492;27;20391;-63
2023/05/21 00:55:07;;;;;;;14.43;9.75;;;16.90;99.90;;;;;;5090845;28;20859;-63
2023/05/21 00:57:35;;;;;;;15.10;9.68;;;16.90;99.90;;;;;;5086527;28;20082;-64
2023/05/21 01:00:06;;;;;;;15.27;9.98;;;16.80;99.90;;;;;;5090319;28;20318;-64
2023/05/21 01:02:33;;;;;;;15.07;10.18;;;16.80;99.90;;;;;;5088972;28;20043;-63
2023/05/21 01:04:59;;;;;;;13.52;9.93;;;16.70;99.90;;;;;;5098046;27;20559;-63
2023/05/21 01:07:25;;;;;;;14.45;10.35;;;16.70;99.90;;;;;;5089345;28;20036;-63
2023/05/21 01:09:53;;;;;;;14.18;10.27;;;16.60;99.90;;;;;;5096855;28;20115;-64
2023/05/21 01:12:19;;;;;;;14.25;10.75;;;16.60;99.90;;;;;;5093499;28;20166;-63
2023/05/21 01:14:46;;;;;;;13.65;10.55;;;16.60;99.90;;;;;;5089436;28;20518;-63
2023/05/21 01:17:13;;;;;;;13.82;9.43;;;16.50;99.90;;;;;;5094874;27;20377;-62
2023/05/21 01:19:41;;;;;;;13.02;11.00;;;16.40;99.90;;;;;;5090896;28;20028;-62
2023/05/21 01:22:07;;;;;;;13.43;10.05;;;16.40;99.90;;;;;;5091743;28;20552;-62
2023/05/21 01:24:34;;;;;;;12.60;9.20;;;16.30;99.90;;;;;;5092084;28;20046;-62
2023/05/21 01:27:02;;;;;;;13.18;11.05;;;16.30;99.90;;;;;;5091388;28;20038;-62
2023/05/21 01:29:27;;;;;;;15.63;11.20;;;16.20;99.90;;;;;;5092659;28;20028;-62
2023/05/21 01:32:11;;;;;;;15.75;10.30;;;16.20;99.90;;;;;;5093717;28;20081;-62
2023/05/21 01:34:46;;;;;;;15.70;10.90;;;16.10;99.90;;;;;;5089827;28;20040;-62
2023/05/21 01:37:35;;;;;;;17.07;12.03;;;16.10;99.90;;;;;;5089595;28;20093;-61
2023/05/21 01:40:19;;;;;;;16.73;10.85;;;16.00;99.90;;;;;;5090760;27;20273;-62
2023/05/21 01:42:46;;;;;;;17.02;11.50;;;16.10;99.90;;;;;;5093050;28;20104;-62
2023/05/21 01:45:15;;;;;;;17.35;11.93;;;16.00;99.90;;;;;;5091056;28;20035;-62
2023/05/21 01:47:47;;;;;;;15.70;12.18;;;16.00;99.90;;;;;;5092170;28;20035;-62
2023/05/21 01:50:14;;;;;;;16.80;11.85;;;16.00;99.90;;;;;;5087294;28;20139;-62
2023/05/21 01:52:48;;;;;;;15.68;12.43;;;16.00;99.90;;;;;;5091107;28;20056;-62
2023/05/21 01:55:14;;;;;;;16.52;11.77;;;16.00;99.90;;;;;;5090810;28;20024;-62
2023/05/21 01:57:40;;;;;;;14.18;10.88;;;16.00;99.90;;;;;;5090643;28;20043;-62
2023/05/21 02:00:07;;;;;;;15.93;11.77;;;16.00;99.90;;;;;;5091000;28;20032;-62
2023/05/21 02:02:41;;;;;;;17.13;11.23;;;16.00;99.90;;;;;;5092982;28;20048;-61
2023/05/21 02:05:07;;;;;;;14.25;11.40;;;15.90;99.90;;;;;;5092453;28;20039;-62
2023/05/21 02:07:33;;;;;;;16.10;11.52;;;15.90;99.90;;;;;;5089113;28;20032;-62
2023/05/21 02:10:00;;;;;;;16.15;12.07;;;15.90;99.90;;;;;;5084305;28;20038;-62
2023/05/21 02:12:27;;;;;;;16.17;12.77;;;15.80;99.90;;;;;;5088269;28;20024;-62
2023/05/21 02:14:53;;;;;;;17.17;12.32;;;15.80;99.90;;;;;;5086058;28;20035;-62
2023/05/21 02:17:18;;;;;;;16.50;11.40;;;15.70;99.90;;;;;;5086848;28;20058;-61
2023/05/21 02:19:44;;;;;;;17.05;12.55;;;15.70;99.90;;;;;;5074236;28;20055;-62
2023/05/21 02:22:10;;;;;;;17.05;12.32;;;15.70;99.90;;;;;;5088181;28;20734;-62
2023/05/21 02:24:36;;;;;;;18.75;12.43;;;15.70;99.90;;;;;;5090747;28;20055;-62
2023/05/21 02:27:02;;;;;;;18.10;13.40;;;15.60;99.90;;;;;;5082320;28;20032;-62
2023/05/21 02:29:28;;;;;;;15.32;11.85;;;15.60;99.90;;;;;;5082191;28;20747;-62
2023/05/21 02:31:54;;;;;;;16.48;11.35;;;15.60;99.90;;;;;;5085838;28;20036;-62
2023/05/21 02:34:19;;;;;;;15.85;12.05;;;15.60;99.90;;;;;;5086579;28;20035;-62
2023/05/21 02:36:47;;;;;;;17.38;11.15;;;15.60;99.90;;;;;;5092497;28;20041;-62
2023/05/21 02:39:14;;;;;;;15.57;12.02;;;15.50;99.90;;;;;;5089549;28;20027;-61
2023/05/21 02:41:40;;;;;;;18.23;12.82;;;15.50;99.90;;;;;;5085826;28;20464;-61
2023/05/21 02:44:06;;;;;;;18.67;12.70;;;15.50;99.90;;;;;;5084751;28;20028;-62
2023/05/21 02:46:32;;;;;;;16.35;12.23;;;15.50;99.90;;;;;;5076760;28;20098;-61
2023/05/21 02:48:57;;;;;;;15.10;12.63;;;15.50;99.90;;;;;;5084928;28;20120;-62
2023/05/21 02:51:23;;;;;;;18.08;12.38;;;15.50;99.90;;;;;;5080512;28;20028;-62
2023/05/21 02:53:49;;;;;;;15.73;12.68;;;15.40;99.90;;;;;;5078898;28;20526;-61
2023/05/21 02:56:15;;;;;;;18.88;12.60;;;15.40;99.90;;;;;;5082237;28;20089;-61
2023/05/21 02:58:40;;;;;;;19.98;15.20;;;15.40;99.90;;;;;;5084198;28;20079;-62
2023/05/21 03:01:06;;;;;;;21.00;14.93;;;15.30;99.90;;;;;;5087642;28;20038;-62
2023/05/21 03:03:32;;;;;;;19.60;13.48;;;15.30;99.90;;;;;;5077561;28;20040;-61
2023/05/21 03:05:58;;;;;;;17.80;13.15;;;15.30;99.90;;;;;;5088382;28;20235;-62
2023/05/21 03:08:25;;;;;;;16.88;13.10;;;15.30;99.90;;;;;;5088405;28;20491;-62
2023/05/21 03:10:51;;;;;;;21.58;13.15;;;15.30;99.90;;;;;;5088783;28;20053;-61
2023/05/21 03:13:17;;;;;;;17.27;12.63;;;15.30;99.90;;;;;;5087056;28;20419;-61
2023/05/21 03:15:42;;;;;;;19.75;13.98;;;15.30;99.90;;;;;;5083381;28;20205;-62
2023/05/21 03:18:10;;;;;;;17.20;13.02;;;15.30;99.90;;;;;;5088486;28;20043;-61
2023/05/21 03:20:42;;;;;;;17.83;13.18;;;15.30;99.90;;;;;;5086497;28;20393;-64
2023/05/21 03:23:08;;;;;;;20.52;12.85;;;15.30;99.90;;;;;;5088771;28;20381;-61
2023/05/21 03:25:35;;;;;;;18.52;13.68;;;15.30;99.90;;;;;;5087056;28;20435;-62
2023/05/21 03:28:01;;;;;;;20.25;14.13;;;15.30;99.90;;;;;;5083033;28;20513;-62
2023/05/21 03:30:49;;;;;;;20.30;14.48;;;15.40;99.90;;;;;;5086131;28;20044;-62
2023/05/21 03:33:33;;;;;;;27.55;17.25;;;15.40;99.90;;;;;;5084926;28;20465;-62
2023/05/21 03:36:02;;;;;;;20.90;14.27;;;15.40;99.90;;;;;;5081209;28;20028;-62
2023/05/21 03:38:32;;;;;;;18.63;13.77;;;15.40;99.90;;;;;;5086342;28;20512;-62
2023/05/21 03:40:58;;;;;;;21.48;15.32;;;15.40;99.90;;;;;;5079295;28;20115;-62
2023/05/21 03:43:24;;;;;;;21.27;14.90;;;15.50;99.90;;;;;;5086495;28;20031;-62
2023/05/21 03:45:50;;;;;;;20.88;15.07;;;15.50;99.90;;;;;;5087296;28;20062;-62
2023/05/21 03:48:36;;;;;;;18.70;14.45;;;15.50;99.90;;;;;;5085822;28;20040;-62
2023/05/21 03:51:02;;;;;;;20.70;14.45;;;15.60;99.90;;;;;;5082931;28;20036;-62
2023/05/21 03:53:28;;;;;;;17.27;14.93;;;15.60;99.90;;;;;;5084136;28;20677;-62
2023/05/21 03:55:54;;;;;;;20.85;14.90;;;15.70;99.90;;;;;;5087395;28;20032;-62
2023/05/21 03:58:22;;;;;;;22.08;15.88;;;15.70;99.90;;;;;;5083578;28;20069;-62
2023/05/21 04:00:48;;;;;;;22.67;16.27;;;15.80;99.90;;;;;;5085429;28;20462;-61
2023/05/21 04:03:14;;;;;;;21.13;15.45;;;15.80;99.90;;;;;;5083663;28;20035;-62
2023/05/21 04:05:41;;;;;;;23.60;17.15;;;15.80;99.90;;;;;;5080195;28;20032;-62
2023/05/21 04:08:07;;;;;;;21.42;16.13;;;15.80;99.90;;;;;;5087934;28;20123;-62
2023/05/21 04:10:34;;;;;;;22.95;16.27;;;15.80;99.90;;;;;;5085331;28;20076;-62
2023/05/21 04:13:00;;;;;;;25.02;16.65;;;15.80;99.90;;;;;;5079659;28;20403;-62
2023/05/21 04:15:26;;;;;;;23.83;15.43;;;15.90;99.90;;;;;;5086830;28;20028;-62
2023/05/21 04:17:53;;;;;;;22.90;16.15;;;16.00;99.90;;;;;;5079544;28;20036;-62
2023/05/21 04:20:19;;;;;;;19.92;15.55;;;16.00;99.90;;;;;;5082979;28;20837;-61
2023/05/21 04:22:46;;;;;;;24.75;17.05;;;16.10;99.90;;;;;;5082496;28;20136;-62
2023/05/21 04:25:12;;;;;;;22.75;15.45;;;16.20;99.90;;;;;;5082414;28;20109;-62
2023/05/21 04:27:39;;;;;;;20.08;14.40;;;16.30;99.90;;;;;;5084522;28;20600;-62
2023/05/21 04:30:06;;;;;;;27.15;16.02;;;16.30;99.90;;;;;;5080893;28;20024;-62
2023/05/21 04:32:34;;;;;;;23.58;17.30;;;16.40;99.90;;;;;;5083248;28;20032;-62
2023/05/21 04:35:00;;;;;;;23.67;16.38;;;16.50;99.90;;;;;;5088254;28;20041;-62
2023/05/21 04:37:27;;;;;;;26.95;17.27;;;16.50;99.90;;;;;;5081184;28;20039;-62
2023/05/21 04:39:54;;;;;;;21.38;16.15;;;16.60;99.90;;;;;;5081242;28;20021;-62
2023/05/21 04:42:22;;;;;;;24.73;15.85;;;16.70;99.90;;;;;;5082188;28;20028;-62
2023/05/21 04:44:49;;;;;;;25.65;17.50;;;16.80;99.90;;;;;;5082971;28;20722;-61
2023/05/21 04:47:19;;;;;;;25.67;17.65;;;16.80;99.90;;;;;;5082612;28;20039;-62
2023/05/21 04:49:46;;;;;;;21.58;14.70;;;17.00;99.90;;;;;;5086688;28;20072;-62
2023/05/21 04:52:12;;;;;;;20.15;15.38;;;17.00;99.90;;;;;;5081422;28;20032;-62
2023/05/21 04:54:40;;;;;;;22.48;17.60;;;17.10;99.90;;;;;;5081931;28;20075;-62
2023/05/21 04:57:07;;;;;;;20.65;15.80;;;17.10;99.90;;;;;;5086378;28;20034;-62
2023/05/21 04:59:33;;;;;;;21.08;16.02;;;17.20;99.90;;;;;;5070754;28;20051;-62
2023/05/21 05:02:00;;;;;;;20.92;15.77;;;17.20;99.90;;;;;;5083166;28;20053;-62
2023/05/21 05:04:25;;;;;;;21.52;16.00;;;17.40;99.90;;;;;;5081252;28;20035;-62
2023/05/21 05:06:51;;;;;;;24.30;16.67;;;17.40;99.90;;;;;;5080999;28;20043;-62
2023/05/21 05:09:20;;;;;;;23.23;16.92;;;17.50;99.90;;;;;;5085077;28;20039;-62
2023/05/21 05:11:46;;;;;;;22.73;15.23;;;17.60;99.90;;;;;;5083757;28;20028;-62
2023/05/21 05:14:13;;;;;;;23.70;15.65;;;17.70;99.90;;;;;;5087384;28;20092;-62
2023/05/21 05:16:39;;;;;;;23.10;15.55;;;17.80;99.90;;;;;;5083715;28;20108;-62
2023/05/21 05:19:04;;;;;;;22.13;16.50;;;17.90;99.90;;;;;;5086415;28;20032;-62
2023/05/21 05:21:30;;;;;;;22.98;15.30;;;17.90;99.90;;;;;;5083874;28;20028;-62
2023/05/21 05:23:58;;;;;;;27.25;17.63;;;18.00;99.90;;;;;;5080667;28;20415;-62
2023/05/21 05:26:27;;;;;;;19.80;15.18;;;18.10;99.90;;;;;;5084426;28;20384;-62
2023/05/21 05:28:53;;;;;;;19.90;15.88;;;18.20;99.90;;;;;;5089326;28;20031;-62
2023/05/21 05:31:19;;;;;;;21.17;15.70;;;18.20;99.90;;;;;;5087546;28;20039;-62
2023/05/21 05:33:45;;;;;;;21.65;16.13;;;18.30;99.90;;;;;;5089361;28;20085;-62
2023/05/21 05:36:11;;;;;;;21.38;15.57;;;18.40;99.90;;;;;;5084097;28;20147;-62
2023/05/21 05:38:37;;;;;;;21.60;16.55;;;18.40;99.90;;;;;;5087991;28;20138;-62
2023/05/21 05:41:03;;;;;;;22.08;14.80;;;18.40;99.90;;;;;;5090704;28;20039;-62
2023/05/21 05:43:28;;;;;;;20.33;14.48;;;18.50;99.90;;;;;;5088092;28;20589;-64
2023/05/21 05:45:56;;;;;;;20.25;15.80;;;18.50;99.90;;;;;;5088722;28;20035;-64
2023/05/21 05:48:22;;;;;;;24.15;16.13;;;18.50;99.90;;;;;;5085025;28;20032;-64
2023/05/21 05:50:48;;;;;;;22.40;15.57;;;18.50;99.90;;;;;;5093203;28;20483;-64
2023/05/21 05:53:14;;;;;;;19.15;15.75;;;18.60;99.90;;;;;;5090378;28;20478;-64
2023/05/21 05:55:40;;;;;;;22.30;15.75;;;18.50;99.90;;;;;;5086308;28;20936;-64
2023/05/21 05:58:06;;;;;;;19.73;15.63;;;18.60;99.90;;;;;;5093843;28;20042;-63
2023/05/21 06:00:41;;;;;;;17.75;13.90;;;18.60;99.90;;;;;;5086089;28;20466;-64
2023/05/21 06:03:07;;;;;;;23.08;17.20;;;18.70;99.90;;;;;;5090524;28;20049;-64
2023/05/21 06:05:32;;;;;;;19.55;14.80;;;18.70;99.90;;;;;;5083453;28;20036;-64
2023/05/21 06:07:58;;;;;;;21.45;15.77;;;18.70;99.90;;;;;;5079653;28;20032;-64
2023/05/21 06:10:24;;;;;;;26.45;17.25;;;18.70;99.90;;;;;;5084947;28;20530;-64
2023/05/21 06:12:50;;;;;;;27.70;16.95;;;18.70;99.90;;;;;;5081241;28;20024;-64
2023/05/21 06:15:18;;;;;;;18.40;14.63;;;18.80;99.90;;;;;;5078608;28;20024;-63
2023/05/21 06:17:44;;;;;;;20.17;16.17;;;18.90;99.90;;;;;;5086158;28;20036;-64
2023/05/21 06:20:11;;;;;;;20.45;15.32;;;19.00;99.90;;;;;;5065049;28;20042;-64
2023/05/21 06:22:37;;;;;;;22.35;15.32;;;19.10;99.90;;;;;;5090972;28;20377;-64
2023/05/21 06:25:06;;;;;;;23.08;15.48;;;19.20;99.90;;;;;;5084149;28;20538;-63
2023/05/21 06:27:32;;;;;;;23.10;17.02;;;19.30;99.90;;;;;;5074303;28;20120;-64
2023/05/21 06:30:00;;;;;;;24.50;15.63;;;19.40;99.90;;;;;;5079511;28;20433;-63
2023/05/21 06:32:26;;;;;;;19.95;16.00;;;19.60;99.90;;;;;;5084747;28;20020;-63
2023/05/21 06:34:52;;;;;;;20.63;15.65;;;19.60;99.90;;;;;;5083385;28;20024;-63
2023/05/21 06:37:20;;;;;;;23.00;16.98;;;19.60;99.90;;;;;;5083542;28;20038;-63
2023/05/21 06:39:46;;;;;;;24.33;16.55;;;19.70;99.60;;;;;;5084287;28;20034;-63
2023/05/21 06:42:11;;;;;;;22.70;16.15;;;19.90;99.40;;;;;;5083506;28;20032;-63
2023/05/21 06:44:55;;;;;;;18.52;15.07;;;20.10;99.00;;;;;;5080298;28;20020;-63
2023/05/21 06:47:35;;;;;;;22.50;15.63;;;20.30;98.60;;;;;;5075043;22;20059;-64
2023/05/21 06:50:01;;;;;;;21.75;16.88;;;20.40;98.20;;;;;;5037661;28;20025;-62
2023/05/21 06:52:30;;;;;;;22.23;15.57;;;20.50;98.00;;;;;;5032501;28;20156;-61
2023/05/21 06:54:56;;;;;;;21.23;15.32;;;20.60;98.00;;;;;;5037758;28;20025;-62
2023/05/21 06:57:24;;;;;;;20.85;16.65;;;20.60;97.70;;;;;;5039547;28;20028;-63
2023/05/21 06:59:50;;;;;;;19.48;14.93;;;20.80;97.20;;;;;;5041172;28;20032;-61
2023/05/21 07:02:16;;;;;;;22.05;15.55;;;20.70;97.30;;;;;;5039989;28;20073;-61
2023/05/21 07:04:42;;;;;;;18.88;15.05;;;20.60;97.50;;;;;;5043614;28;20643;-63
2023/05/21 07:07:07;;;;;;;21.17;15.02;;;20.70;97.20;;;;;;5041054;28;20029;-61
2023/05/21 07:09:33;;;;;;;24.00;17.20;;;20.80;96.90;;;;;;5038408;28;20090;-64
2023/05/21 07:12:00;;;;;;;18.75;14.40;;;20.90;95.60;;;;;;5043752;28;20025;-62
2023/05/21 07:14:25;;;;;;;21.40;15.15;;;21.00;95.80;;;;;;5038447;28;20026;-62
2023/05/21 07:16:51;;;;;;;23.85;14.95;;;21.00;95.60;;;;;;5040261;28;20025;-62
2023/05/21 07:19:17;;;;;;;27.10;18.27;;;21.20;95.90;;;;;;5040281;28;20450;-62
2023/05/21 07:21:43;;;;;;;23.50;16.77;;;21.30;94.10;;;;;;5043530;28;20043;-62
2023/05/21 07:24:10;;;;;;;21.58;16.15;;;21.30;94.90;;;;;;5040163;28;20098;-62
2023/05/21 07:26:39;;;;;;;22.05;16.17;;;21.30;94.20;;;;;;5044017;28;20036;-64
2023/05/21 07:29:05;;;;;;;15.23;13.25;;;21.40;94.50;;;;;;5039005;28;20056;-63
2023/05/21 07:31:30;;;;;;;21.58;14.82;;;21.40;94.80;;;;;;5042692;28;20382;-64
2023/05/21 07:33:56;;;;;;;17.23;13.95;;;21.50;94.60;;;;;;5043520;28;20456;-64
2023/05/21 07:36:26;;;;;;;16.17;13.43;;;21.70;94.70;;;;;;5041498;28;20029;-65
2023/05/21 07:38:52;;;;;;;20.77;15.70;;;21.70;94.00;;;;;;5055313;28;20037;-62
2023/05/21 07:41:18;;;;;;;19.20;14.40;;;21.80;93.60;;;;;;5034228;28;20020;-62
2023/05/21 07:43:46;;;;;;;17.70;14.27;;;21.80;94.60;;;;;;5043201;28;20029;-63
2023/05/21 07:46:12;;;;;;;17.70;12.75;;;21.90;93.70;;;;;;5040052;28;20071;-62
2023/05/21 07:48:40;;;;;;;16.73;12.98;;;21.90;93.50;;;;;;5042004;28;20057;-63
2023/05/21 07:51:06;;;;;;;20.17;14.38;;;21.90;92.80;;;;;;5035652;28;20385;-62
2023/05/21 07:53:32;;;;;;;18.05;13.73;;;22.00;93.40;;;;;;5035147;28;20031;-62
2023/05/21 07:56:02;;;;;;;15.48;12.50;;;22.10;93.30;;;;;;5027202;28;20032;-64
2023/05/21 07:58:29;;;;;;;18.17;14.10;;;22.10;93.20;;;;;;5040799;28;20033;-62
2023/05/21 08:00:57;;;;;;;17.50;13.07;;;22.30;93.20;;;;;;5042769;28;20374;-63
2023/05/21 08:03:29;;;;;;;19.67;13.68;;;22.30;92.70;;;;;;5038999;28;20055;-63
2023/05/21 08:05:56;;;;;;;17.83;13.77;;;22.40;92.70;;;;;;5040013;28;20812;-63
2023/05/21 08:08:24;;;;;;;21.02;13.93;;;22.40;92.70;;;;;;5034700;28;20065;-62
2023/05/21 08:10:52;;;;;;;17.92;12.35;;;22.40;92.60;;;;;;5033964;28;20580;-63
2023/05/21 08:13:19;;;;;;;15.10;12.98;;;22.50;92.80;;;;;;5038030;28;20396;-66
2023/05/21 08:15:47;;;;;;;24.25;13.65;;;22.60;92.40;;;;;;5040757;28;20079;-63
2023/05/21 08:18:16;;;;;;;18.65;12.68;;;22.70;91.70;;;;;;5037723;28;20041;-62
2023/05/21 08:20:42;;;;;;;17.15;11.88;;;22.70;92.00;;;;;;5039193;28;20044;-65
2023/05/21 08:23:08;;;;;;;17.10;13.18;;;22.70;92.20;;;;;;5030996;28;20032;-62
2023/05/21 08:25:41;;;;;;;16.55;12.60;;;22.90;91.60;;;;;;5040697;28;20033;-64
2023/05/21 08:28:08;;;;;;;14.35;12.18;;;22.90;91.60;;;;;;5040916;28;20049;-64
2023/05/21 08:30:34;;;;;;;18.30;13.27;;;22.90;91.90;;;;;;5041357;28;20133;-63
2023/05/21 08:33:01;;;;;;;16.20;12.93;;;23.00;91.30;;;;;;5040871;28;20029;-64
2023/05/21 08:35:29;;;;;;;16.42;12.68;;;23.10;90.50;;;;;;5037882;28;20087;-64
2023/05/21 08:38:18;;;;;;;15.05;12.38;;;23.20;90.50;;;;;;5029355;28;20722;-64
2023/05/21 08:41:06;;;;;;;17.25;12.07;;;23.20;91.00;;;;;;5038327;28;20695;-64
2023/05/21 08:43:35;;;;;;;16.45;11.52;;;23.30;90.60;;;;;;5041193;28;20044;-63
2023/05/21 08:46:03;;;;;;;13.77;12.00;;;23.40;90.90;;;;;;5040882;28;20440;-65
2023/05/21 08:48:32;;;;;;;15.18;12.00;;;23.60;91.00;;;;;;5036101;28;20055;-64
2023/05/21 08:50:59;;;;;;;12.43;10.90;;;23.80;90.00;;;;;;5041343;28;20104;-65
2023/05/21 08:53:35;;;;;;;13.18;11.38;;;23.90;89.10;;;;;;5036795;28;20036;-65
2023/05/21 08:56:05;;;;;;;13.60;10.75;;;24.10;88.60;;;;;;5039126;28;20021;-64
2023/05/21 08:58:44;;;;;;;14.15;10.40;;;24.10;86.20;;;;;;5034527;28;20565;-64
2023/05/21 09:01:11;;;;;;;13.70;10.95;;;24.20;86.90;;;;;;5039647;28;20051;-65
2023/05/21 09:03:40;;;;;;;13.48;11.23;;;24.10;85.00;;;;;;5045118;28;20032;-70
2023/05/21 09:06:10;;;;;;;12.75;10.48;;;24.10;85.80;;;;;;5043189;28;20400;-63
2023/05/21 09:08:42;;;;;;;12.55;10.50;;;24.20;85.90;;;;;;5034680;28;20048;-64
2023/05/21 09:11:18;;;;;;;14.50;10.60;;;24.30;86.10;;;;;;5040829;28;20030;-65
2023/05/21 09:13:52;;;;;;;15.02;10.63;;;24.40;85.50;;;;;;5044960;28;20105;-66
2023/05/21 09:16:25;;;;;;;13.18;10.73;;;24.50;84.80;;;;;;5042441;28;20057;-65
2023/05/21 09:18:51;;;;;;;11.98;10.50;;;24.60;83.90;;;;;;5041181;28;20067;-66
2023/05/21 09:21:30;;;;;;;11.95;10.20;;;24.60;84.50;;;;;;5042520;28;20087;-64
2023/05/21 09:24:03;;;;;;;13.07;11.02;;;24.70;85.10;;;;;;5044461;28;20064;-65
2023/05/21 09:26:29;;;;;;;12.70;9.65;;;24.80;84.50;;;;;;5043697;28;20032;-65
2023/05/21 09:29:00;;;;;;;14.02;10.00;;;24.90;83.50;;;;;;5045231;28;20091;-65
2023/05/21 09:31:26;;;;;;;14.25;10.30;;;25.10;81.50;;;;;;5045572;28;20451;-65
2023/05/21 09:33:52;;;;;;;12.60;10.20;;;25.10;80.90;;;;;;5043496;28;20041;-64
2023/05/21 09:36:20;;;;;;;12.85;10.38;;;25.10;80.90;;;;;;5039620;28;20028;-64
2023/05/21 09:38:48;;;;;;;12.25;9.68;;;25.20;81.90;;;;;;5044100;28;20039;-64
2023/05/21 09:41:14;;;;;;;14.15;9.73;;;25.30;82.00;;;;;;5033794;28;20034;-63
2023/05/21 09:43:43;;;;;;;10.40;9.30;;;25.40;80.00;;;;;;5043672;28;20032;-63
2023/05/21 09:46:10;;;;;;;14.82;10.10;;;25.70;81.90;;;;;;5035140;28;20577;-64
2023/05/21 09:48:37;;;;;;;13.27;9.63;;;25.80;79.60;;;;;;5044182;28;20037;-65
2023/05/21 09:51:15;;;;;;;11.30;9.02;;;26.00;78.80;;;;;;5044911;28;20120;-64
2023/05/21 09:53:56;;;;;;;10.27;9.15;;;26.10;77.20;;;;;;5042302;28;20694;-67
2023/05/21 09:56:25;;;;;;;11.60;9.07;;;26.20;75.60;;;;;;5041918;28;20087;-64
2023/05/21 09:58:55;;;;;;;12.63;8.90;;;26.10;74.10;;;;;;5042128;28;20043;-64
2023/05/21 10:01:23;;;;;;;15.02;9.13;;;26.10;74.70;;;;;;5043001;28;20076;-64
2023/05/21 10:04:01;;;;;;;11.38;8.35;;;26.00;75.40;;;;;;5044169;28;20029;-64
2023/05/21 10:06:29;;;;;;;14.07;8.65;;;26.10;76.20;;;;;;5046321;28;20044;-65
2023/05/21 10:08:58;;;;;;;10.15;7.63;;;26.10;76.20;;;;;;5044781;28;20112;-65
2023/05/21 10:11:30;;;;;;;10.48;7.28;;;26.10;72.80;;;;;;5045421;28;20083;-64
2023/05/21 10:14:16;;;;;;;10.77;7.28;;;26.10;73.40;;;;;;5044195;28;20370;-63
2023/05/21 10:16:42;;;;;;;10.63;7.60;;;26.00;72.20;;;;;;5043902;28;20036;-63
2023/05/21 10:19:12;;;;;;;7.57;6.65;;;25.80;70.90;;;;;;5042545;28;20155;-63
2023/05/21 10:21:38;;;;;;;10.15;7.30;;;25.70;71.60;;;;;;5040418;28;20127;-62
2023/05/21 10:24:07;;;;;;;11.27;6.82;;;25.70;72.00;;;;;;5042628;28;20123;-62
2023/05/21 10:26:34;;;;;;;7.53;6.70;;;25.80;69.90;;;;;;5043185;28;20041;-62
2023/05/21 10:29:01;;;;;;;10.20;6.70;;;25.90;71.50;;;;;;5040716;28;20047;-63
2023/05/21 10:31:28;;;;;;;9.40;5.90;;;26.10;70.50;;;;;;5040933;28;20029;-62
2023/05/21 10:33:54;;;;;;;9.10;6.18;;;26.20;66.60;;;;;;5039982;28;20036;-62
2023/05/21 10:36:22;;;;;;;9.05;6.55;;;26.30;67.30;;;;;;5037163;28;20137;-62
2023/05/21 10:38:48;;;;;;;12.18;8.32;;;26.40;66.60;;;;;;5042714;28;20036;-62
2023/05/21 10:41:17;;;;;;;8.38;7.13;;;26.80;67.20;;;;;;5038055;28;20033;-62
2023/05/21 10:43:57;;;;;;;7.82;6.45;;;27.00;66.60;;;;;;5041625;28;20093;-62
2023/05/21 10:46:38;;;;;;;10.73;7.22;;;27.40;63.60;;;;;;5039691;28;20052;-63
2023/05/21 10:49:24;;;;;;;6.65;5.95;;;27.70;61.60;;;;;;5047432;28;20055;-63
2023/05/21 10:52:10;;;;;;;7.47;5.28;;;28.00;60.20;;;;;;5040633;28;20041;-63
2023/05/21 10:54:53;;;;;;;8.10;6.45;;;28.00;60.10;;;;;;5043753;28;20028;-63
2023/05/21 10:57:43;;;;;;;7.90;5.85;;;28.10;59.10;;;;;;5046214;28;20052;-63
2023/05/21 11:00:11;;;;;;;7.90;5.68;;;28.10;58.60;;;;;;5044973;28;20029;-64
2023/05/21 11:02:37;;;;;;;10.70;5.10;;;28.00;58.60;;;;;;5038985;28;20102;-64
2023/05/21 11:05:03;;;;;;;7.82;5.55;;;28.00;61.20;;;;;;5043647;28;20052;-63
2023/05/21 11:07:52;;;;;;;7.18;5.70;;;28.00;58.80;;;;;;5042729;28;20391;-65
2023/05/21 11:10:37;;;;;;;12.48;6.03;;;28.00;58.60;;;;;;5049216;28;20477;-64
2023/05/21 11:13:13;;;;;;;6.82;5.90;;;27.90;58.50;;;;;;5044588;28;20031;-64
2023/05/21 11:15:57;;;;;;;7.70;5.35;;;28.00;58.70;;;;;;5039378;28;20492;-64
2023/05/21 11:18:38;;;;;;;5.82;5.07;;;27.70;58.30;;;;;;5041787;28;20045;-62
2023/05/21 11:21:09;;;;;;;6.50;4.95;;;27.60;58.70;;;;;;5038678;28;20037;-62
2023/05/21 11:24:02;;;;;;;12.80;5.40;;;27.60;58.20;;;;;;5045816;28;20029;-64
2023/05/21 11:26:49;;;;;;;7.55;5.15;;;27.60;59.50;;;;;;5039318;28;20596;-62
2023/05/21 11:29:16;;;;;;;12.18;5.07;;;27.70;57.70;;;;;;5036231;28;20503;-63
2023/05/21 11:32:01;;;;;;;7.32;5.03;;;27.70;58.60;;;;;;5041007;28;20039;-69
2023/05/21 11:34:38;;;;;;;6.35;5.65;;;27.70;58.40;;;;;;5041162;28;20028;-62
2023/05/21 11:37:16;;;;;;;6.38;5.03;;;27.80;57.20;;;;;;5041605;28;20037;-62
2023/05/21 11:39:46;;;;;;;7.13;4.75;;;27.70;57.50;;;;;;5039523;28;20041;-62
2023/05/21 11:42:26;;;;;;;6.40;4.97;;;27.70;57.20;;;;;;5035514;28;20041;-63
2023/05/21 11:44:52;;;;;;;6.47;4.82;;;27.70;56.80;;;;;;5044573;28;20067;-62
2023/05/21 11:47:18;;;;;;;11.18;5.38;;;27.70;56.90;;;;;;5037525;28;20061;-62
2023/05/21 11:49:45;;;;;;;6.30;5.20;;;27.60;56.50;;;;;;5040708;28;20033;-62
2023/05/21 11:52:12;;;;;;;6.88;4.95;;;27.60;57.00;;;;;;5039675;28;20439;-62
2023/05/21 11:54:47;;;;;;;8.32;4.43;;;27.60;56.90;;;;;;5041676;28;20087;-63
2023/05/21 11:57:16;;;;;;;5.10;4.60;;;27.40;56.10;;;;;;5040951;28;20448;-62
2023/05/21 11:59:41;;;;;;;7.40;4.80;;;27.30;56.90;;;;;;5040410;28;20045;-62
2023/05/21 12:02:07;;;;;;;8.18;4.82;;;27.30;58.00;;;;;;5040583;28;20029;-62
2023/05/21 12:04:35;;;;;;;5.28;4.75;;;27.40;56.20;;;;;;5042176;28;20029;-63
2023/05/21 12:07:08;;;;;;;9.73;4.63;;;27.40;56.30;;;;;;5040720;28;20099;-62
2023/05/21 12:09:41;;;;;;;9.30;4.50;;;27.40;56.10;;;;;;5042642;28;20033;-62
2023/05/21 12:12:08;;;;;;;6.70;4.32;;;27.50;56.70;;;;;;5037992;28;20045;-62
2023/05/21 12:14:37;;;;;;;8.18;4.45;;;27.60;55.60;;;;;;5043254;28;20040;-62
2023/05/21 12:17:04;;;;;;;5.53;4.70;;;27.60;56.30;;;;;;5040148;28;20052;-63
2023/05/21 12:19:34;;;;;;;8.15;4.70;;;27.50;55.50;;;;;;5039226;28;20025;-62
2023/05/21 12:22:04;;;;;;;5.55;4.95;;;27.60;55.80;;;;;;5040481;28;20157;-62
2023/05/21 12:24:30;;;;;;;8.00;4.35;;;27.60;55.60;;;;;;5040553;28;20047;-63
2023/05/21 12:27:00;;;;;;;6.50;4.55;;;27.60;55.10;;;;;;5044833;28;20366;-63
2023/05/21 12:29:30;;;;;;;6.45;4.93;;;27.60;54.90;;;;;;5042026;28;20108;-63
2023/05/21 12:32:07;;;;;;;6.88;4.60;;;27.60;55.10;;;;;;5045955;28;20036;-63
2023/05/21 12:34:49;;;;;;;6.45;4.43;;;27.60;55.10;;;;;;5043085;28;20032;-63
2023/05/21 12:37:26;;;;;;;6.43;4.05;;;27.60;55.20;;;;;;5048446;28;20036;-64
2023/05/21 12:39:58;;;;;;;6.72;4.28;;;27.60;55.50;;;;;;5047295;28;20454;-63